Mijn Webcam Meer informatie Mijn Webcam


webcam facing north-east Meer informatie webcam facing north-east


waarschuwing voor winterse neerslag Meer informatie rain snow radar


Bezoek onze andere website:

Template documentation
and downloads

And another site


CBI



Sneeuw/IJzel/Bevriezing van: 12-12-2017 16:00 tot: 13-12-2017 09:59 waarschuwing voor: Sneeuw/IJzel/Bevriezing niveau: Geel info button
Kans op verraderlijke gladheid door sneeuwresten of door een winterse bui. Vanavond en vannacht kan het ook glad worden door bevriezing. Woensdagochtend kan er mogelijk ook kortdurend wat winterse neerslag vallen.Kans op gladheid. Alle verkeersdeelnemers kunnen hinder ondervinden. Pas uw rijgedrag aan. Volg weerberichten en waarschuwingen.

METAR rapporten vliegvelden

   
EHGG - Groningen/Eelde
Gewijzigd: 12-12-2017 16:55
Gedeeltelijk bewolkt  
Gedeeltelijk bewolkt  
   Wind: ZW 4,6 m/s
Wind: ZW 4,6 m/s
Temperatuur: 2°C
Voelt als: -2°C
Dauwpunt: 0°C
Vochtigheid: 87%
Barometer: 1008 hPa
Bewolking: Gedeeltelijk bewolkt
Zicht: More then 10 km
Bewolking: Gedeeltelijk bewolkt 1249,7 m,
Gedeeltelijk bewolkt 1402,1 m
EHGG 121555Z AUTO 23009KT 9999 SCT041 SCT046 02/00 Q1008 NOSIG
EHMA - Schiermonnikoog
Gewijzigd: 12-12-2017 16:55
Gedeeltelijk bewolkt  
Gedeeltelijk bewolkt  
   Wind: Westen 5,7 m/s
Wind: Westen 5,7 m/s
Temperatuur: 5°C
Voelt als: 1°C
Dauwpunt: 2°C
Vochtigheid: 81%
Barometer: 1007 hPa
Bewolking: Gedeeltelijk bewolkt
Zicht: More then 10 km
Bewolking: Licht bewolkt 609,6 m,
Gedeeltelijk bewolkt 1066,8 m
EHMA 121555Z AUTO 26011KT 9999 FEW020 SCT035 05/02 Q1007 W///H///
EHMG - Terschelling
Gewijzigd: 12-12-2017 16:55
Gedeeltelijk bewolkt  
Gedeeltelijk bewolkt  
   Wind: WZW 5,7 m/s
Wind: WZW 5,7 m/s
Temperatuur: 6°C
Voelt als: 2°C
Dauwpunt: 1°C
Vochtigheid: 71%
Barometer: 1006 hPa
Bewolking: Gedeeltelijk bewolkt
Zicht: More then 10 km
Bewolking: Licht bewolkt 914,4 m,
Gedeeltelijk bewolkt 1158,2 m
EHMG 121555Z AUTO 24011KT 9999 FEW030 SCT038 06/01 Q1006 W///H///
EHVL - Vlieland
Gewijzigd: 12-12-2017 17:07
Grotendeels bewolkt  
Grotendeels bewolkt  
   Wind: ZW 8,7 m/s
Wind: ZW 8,7 m/s
Temperatuur: 5°C
Voelt als: 0°C
Dauwpunt: 3°C
Vochtigheid: 87%
Barometer: 1007 hPa
Bewolking: Grotendeels bewolkt
Zicht: More then 10 km
Bewolking: Licht bewolkt 640,1 m,
Gedeeltelijk bewolkt 731,5 m,
Grotendeels bewolkt 853,4 m
EHVL 121607Z AUTO 23017KT 9999 FEW021 SCT024 BKN028 05/03 Q1007 WHT
ETWM - Meppen, Germany
Gewijzigd: 12-12-2017 16:20
Grotendeels bewolkt  
Grotendeels bewolkt  
   Wind: ZW 3,1 m/s
Wind: ZW 3,1 m/s
Temperatuur: 2°C
Voelt als: -1°C
Dauwpunt: 1°C
Vochtigheid: 93%
Barometer: 1008 hPa
Bewolking: Grotendeels bewolkt
Zicht: More then 10 km
Bewolking: Licht bewolkt 609,6 m,
Gedeeltelijk bewolkt 1310,6 m,
Grotendeels bewolkt 1859,3 m
ETWM 121520Z 22006KT 9999 FEW020 SCT043 BKN061 02/01 Q1008 BLU
 

Script ontwikkeld door  Saratoga-weather.org Aangepast voor de template door  Weerstation Leuven

U vindt ons ook hier:

Het Weer Aktueel

UK Metoffice

European Weather Network

WeatherCloud

Weather Underground

Benelux Weer Netwerk

AWEKAS

WeatherlinkIP

HAMweather, WeatherForYou, PWS Weather

Apparatuur in gebruik:

Weerstation
Davis VP2 Plus

Weerprogramma
Cumulus

Weercomputer
ASUS Eee Box B202

Webleverancier
Antagonist

Davis VP2 Plus

Cumulus

ASUS Eee Box B202

Antagonist